Almond, Wisconsin
Current Conditions -  °F | °C
As of 10:56 PM on Friday 31 Oct 2014 (Local Time) from KY50 Reporting Station
Few Clouds Few Clouds  
Wind Chill: 27°   Ceiling: Unl
Heat Index: 27°   Visibility: 10mi
Dew Point: 17°   Wind: 0mph
Humidity: 66%   Direction: NA
Pressure: 30.48"   Gusts: NA
Location:  44.26°N, 89.41°W
Report Text: KY50 010356Z AUTO 00000KT 10SM FEW041 M03/M08 A3048 RMK AO2 TSNO T10271083 SLP330
Loading
Personal Weather Stations






























Interactive Weather Map
Tropical Storm Tracking
New forecast layout! Learn more

10-Day Weather Forecast

Advertisements
Track Severe Weather on mobile